Saturday, November 18, 2017, 1:30 AM EST
Back to Local

KNFE, Fentress Nalf

Location: Chesapeake, VA, United States Lat: 36.7
Local Time: 1:30 AM EST ( 6:30 GMT) Lon: -76.133
Time Zone: US/Eastern Elev: 13 ft

Show me the last for .
Show Decoded

2017-11-17 20:56 METAR KNFE 180156Z AUTO 00000KT 10SM CLR 03/00 A3015 RMK AO2 SLP213 T00330000 =
2017-11-17 19:56 METAR KNFE 180056Z AUTO 00000KT 10SM CLR 03/01 A3015 RMK AO2 SLP213 T00330006 =
2017-11-17 18:56 METAR KNFE 172356Z AUTO 00000KT 10SM CLR 04/01 A3017 RMK AO2 SLP218 T00440006
                 10139 20039 53004 =
2017-11-17 17:56 METAR KNFE 172256Z AUTO 00000KT 10SM CLR 05/01 A3016 RMK AO2 SLP215 T00500006 =
2017-11-17 16:56 METAR KNFE 172156Z AUTO 00000KT 10SM CLR 10/01 A3016 RMK AO2 SLP216 T01000011 =
2017-11-17 15:56 METAR KNFE 172056Z AUTO 34005KT 10SM CLR 12/M01 A3016 RMK AO2 SLP214 T01221011
                 55006 =
2017-11-17 14:56 METAR KNFE 171956Z AUTO 31006KT 10SM CLR 13/M01 A3015 RMK AO2 SLP210 T01331011 =
2017-11-17 13:56 METAR KNFE 171856Z AUTO VRB05KT 10SM CLR 13/M01 A3016 RMK AO2 SLP215 T01331006 =
2017-11-17 12:56 METAR KNFE 171756Z AUTO 29007KT 250V330 10SM CLR 13/01 A3017 RMK AO2 SLP220
                 T01280006 10133 20072 58013 =
2017-11-17 11:56 METAR KNFE 171656Z AUTO 33007KT 280V360 10SM CLR 12/M01 A3019 RMK AO2 SLP223
                 T01221006 =
2017-11-17 10:56 METAR KNFE 171556Z AUTO 34009G16KT 10SM CLR 12/00 A3020 RMK AO2 SLP230 T01220000
                 =
2017-11-17 09:56 METAR KNFE 171456Z AUTO 34008KT 10SM CLR 12/01 A3021 RMK AO2 SLP233 T01170006
                 51011 =
2017-11-17 08:56 METAR KNFE 171356Z AUTO 33009KT 10SM CLR 10/00 A3021 RMK AO2 SLP232 T01000000 =
2017-11-17 07:56 METAR KNFE 171256Z AUTO 32006KT 10SM CLR 09/M01 A3021 RMK AO2 SLP230 T00891006 =
2017-11-17 06:56 METAR KNFE 171156Z AUTO 32007KT 10SM CLR 07/M01 A3018 RMK AO2 SLP222 T00721006
                 10100 20072 51018 =
2017-11-17 05:56 METAR KNFE 171056Z AUTO 32007KT 280V360 10SM CLR 08/M01 A3017 RMK AO2 SLP217
                 T00781006 =
2017-11-17 04:56 METAR KNFE 170956Z AUTO VRB05KT 10SM CLR 08/M01 A3015 RMK AO2 SLP211 T00781006 =

Support USWX by starting your Amazon purchase here.